Terminal Aerodrome Forecast
Issued by NWS

Home | Current Version | Previous Version | Text Only | Print | Product List | Glossary On
Versions: 1 2 3 4 5 6 7 8 9 10 11 12 13 14 15 16 17 18 19 20 21 22 23 24 25 26 27 28 29 30 31 32 33 34 35 36 37 38 39 40 41 42 43 44
376
FTAK31 PANC 252023 AAA
TAFACD
TAF AMD
PACD 252023Z 2520/2618 29010KT 4SM -RA BR OVC004
      TEMPO 2520/2523 2SM -RA BR OVC006
     FM252300 30012KT P6SM -SHRA OVC015
     FM260700 30010KT P6SM -SHRA OVC009=

USA.gov is the U.S. government's official web portal to all federal, state and local government web resources and services.